RCF1303 UIII-UWWW
Flight info
| Callsign | RCF1303 |
|---|---|
| Flight time | N/A |
| Altitude | 38000 |
| Route | BD4Z BD W241 KEDRA A307 RATKO A308 EB/K0893F400 A308 OSNAB G825 DORON A487 BENAK L158 LANTO T759 NALUS NALUS2F |
| Aircraft | MD11/H-SDE1E2E3FGHIJ2J3J4J5M1RWXY/LB1D1 |
Departure
| Time | 2026-04-27 20:52 |
|---|---|
| Airport | Irkutsk International Airport (UIII) |
Arrival
| Time | N/A |
|---|---|
| Airport | Kurumoch International Airport (UWWW) |
| Time | Latitude | Longitude | Altitude | Speed | Heading |
|---|---|---|---|---|---|
| 2026-04-27 20:18 | 52.27122 | 104.35991 | 1600 ft | 0 kts | 356° |
| 2026-04-27 20:47 | 52.27124 | 104.35990 | 1600 ft | 1 kts | 356° |
| 2026-04-27 20:47 | 52.27158 | 104.35987 | 1598 ft | 8 kts | 356° |
| 2026-04-27 20:47 | 52.27184 | 104.35984 | 1597 ft | 0 kts | 356° |
| 2026-04-27 20:48 | 52.27190 | 104.35986 | 1597 ft | 3 kts | 11° |
| 2026-04-27 20:48 | 52.27215 | 104.36024 | 1595 ft | 0 kts | 79° |
| 2026-04-27 20:48 | 52.27211 | 104.36059 | 1595 ft | 5 kts | 103° |
| 2026-04-27 20:49 | 52.27197 | 104.36149 | 1596 ft | 12 kts | 103° |
| 2026-04-27 20:49 | 52.27172 | 104.36329 | 1598 ft | 17 kts | 109° |
| 2026-04-27 20:49 | 52.27125 | 104.36528 | 1601 ft | 18 kts | 109° |
| 2026-04-27 20:49 | 52.27082 | 104.36729 | 1605 ft | 19 kts | 110° |
| 2026-04-27 20:50 | 52.27032 | 104.36945 | 1609 ft | 23 kts | 110° |
| 2026-04-27 20:50 | 52.26989 | 104.37134 | 1610 ft | 2 kts | 103° |
| 2026-04-27 20:50 | 52.27008 | 104.37228 | 1607 ft | 18 kts | 59° |
| 2026-04-27 20:50 | 52.27101 | 104.37445 | 1600 ft | 17 kts | 54° |
| 2026-04-27 20:51 | 52.27174 | 104.37624 | 1594 ft | 13 kts | 67° |
| 2026-04-27 20:51 | 52.27163 | 104.37777 | 1597 ft | 13 kts | 111° |
| 2026-04-27 20:51 | 52.27125 | 104.37932 | 1600 ft | 24 kts | 111° |
| 2026-04-27 20:51 | 52.26949 | 104.38597 | 1617 ft | 112 kts | 113° |
| 2026-04-27 20:52 | 52.26530 | 104.40215 | 1840 ft | 185 kts | 112° |
| 2026-04-27 20:52 | 52.25990 | 104.42148 | 2972 ft | 204 kts | 118° |
| 2026-04-27 20:52 | 52.25349 | 104.44234 | 4397 ft | 219 kts | 118° |
| 2026-04-27 20:52 | 52.24633 | 104.46493 | 5755 ft | 236 kts | 117° |
| 2026-04-27 20:53 | 52.24077 | 104.48968 | 7120 ft | 246 kts | 92° |
| 2026-04-27 20:53 | 52.24743 | 104.51335 | 8207 ft | 247 kts | 13° |
| 2026-04-27 20:53 | 52.26277 | 104.50756 | 9389 ft | 243 kts | 314° |
| 2026-04-27 20:53 | 52.27084 | 104.48623 | 11045 ft | 232 kts | 293° |
| 2026-04-27 20:54 | 52.27810 | 104.42976 | 13073 ft | 260 kts | 278° |
| 2026-04-27 20:54 | 52.28125 | 104.40157 | 14356 ft | 250 kts | 297° |
| 2026-04-27 20:54 | 52.29001 | 104.37902 | 15554 ft | 240 kts | 317° |
| 2026-04-27 20:55 | 52.30384 | 104.36124 | 15805 ft | 276 kts | 331° |
| 2026-04-27 20:55 | 52.31905 | 104.33846 | 15762 ft | 323 kts | 298° |
| 2026-04-27 20:55 | 52.32603 | 104.30263 | 16641 ft | 342 kts | 282° |
| 2026-04-27 20:55 | 52.32986 | 104.26393 | 17575 ft | 354 kts | 280° |
| 2026-04-27 20:56 | 52.33349 | 104.22321 | 17864 ft | 380 kts | 280° |
| 2026-04-27 20:56 | 52.33751 | 104.17910 | 18312 ft | 399 kts | 280° |
| 2026-04-27 20:56 | 52.34180 | 104.13424 | 19189 ft | 407 kts | 280° |
| 2026-04-27 20:56 | 52.34628 | 104.08894 | 20181 ft | 411 kts | 281° |
| 2026-04-27 20:57 | 52.35099 | 104.04257 | 21073 ft | 417 kts | 281° |
| 2026-04-27 20:57 | 52.35588 | 103.99562 | 21966 ft | 423 kts | 281° |
| 2026-04-27 20:57 | 52.36088 | 103.94807 | 22798 ft | 430 kts | 281° |
| 2026-04-27 20:57 | 52.36600 | 103.89973 | 23649 ft | 436 kts | 281° |
| 2026-04-27 20:58 | 52.37116 | 103.85093 | 24473 ft | 442 kts | 282° |
| 2026-04-27 20:58 | 52.37634 | 103.80183 | 25324 ft | 446 kts | 282° |
| 2026-04-27 20:58 | 52.38170 | 103.75157 | 26176 ft | 449 kts | 282° |
| 2026-04-27 20:58 | 52.38708 | 103.70154 | 26216 ft | 452 kts | 283° |
| 2026-04-27 20:59 | 52.39260 | 103.65080 | 26932 ft | 457 kts | 283° |
| 2026-04-27 20:59 | 52.39811 | 103.59951 | 27803 ft | 462 kts | 283° |
| 2026-04-27 20:59 | 52.40366 | 103.54808 | 28665 ft | 466 kts | 283° |
| 2026-04-27 20:59 | 52.40933 | 103.49582 | 29464 ft | 471 kts | 284° |
| 2026-04-27 21:00 | 52.41515 | 103.44289 | 30241 ft | 477 kts | 284° |
| 2026-04-27 21:00 | 52.42098 | 103.38988 | 31226 ft | 477 kts | 284° |
| 2026-04-27 21:00 | 52.42682 | 103.33677 | 32451 ft | 472 kts | 283° |
| 2026-04-27 21:00 | 52.43253 | 103.28506 | 33602 ft | 466 kts | 284° |
| 2026-04-27 21:01 | 52.43884 | 103.23359 | 34695 ft | 460 kts | 286° |
| 2026-04-27 21:01 | 52.44649 | 103.18315 | 35532 ft | 454 kts | 290° |
| 2026-04-27 21:01 | 52.45599 | 103.13443 | 36252 ft | 450 kts | 292° |
| 2026-04-27 21:01 | 52.46626 | 103.08665 | 36820 ft | 451 kts | 293° |
| 2026-04-27 21:02 | 52.47659 | 103.03845 | 37537 ft | 450 kts | 292° |
| 2026-04-27 21:02 | 52.48692 | 102.98968 | 38085 ft | 453 kts | 292° |
| 2026-04-27 21:02 | 52.49730 | 102.94042 | 38151 ft | 463 kts | 292° |
| 2026-04-27 21:02 | 52.50780 | 102.89043 | 38272 ft | 473 kts | 292° |
| 2026-04-27 21:03 | 52.51866 | 102.83865 | 38199 ft | 485 kts | 291° |
| 2026-04-27 21:03 | 52.52947 | 102.78700 | 38388 ft | 483 kts | 292° |
| 2026-04-27 21:03 | 52.54047 | 102.73444 | 38196 ft | 489 kts | 292° |
| 2026-04-27 21:03 | 52.55144 | 102.68220 | 38155 ft | 476 kts | 292° |
| 2026-04-27 21:04 | 52.56182 | 102.63265 | 38441 ft | 457 kts | 292° |
| 2026-04-27 21:04 | 52.57211 | 102.58379 | 38101 ft | 449 kts | 292° |
| 2026-04-27 21:04 | 52.58214 | 102.53632 | 38247 ft | 431 kts | 292° |
| 2026-04-27 21:05 | 52.60139 | 102.44559 | 38053 ft | 421 kts | 292° |
| 2026-04-27 21:05 | 52.62102 | 102.35384 | 37939 ft | 424 kts | 292° |
| 2026-04-27 21:05 | 52.63061 | 102.30894 | 37833 ft | 422 kts | 291° |
| 2026-04-27 21:06 | 52.64030 | 102.26364 | 37727 ft | 420 kts | 291° |
| 2026-04-27 21:06 | 52.66009 | 102.17162 | 37589 ft | 439 kts | 291° |
| 2026-04-27 21:06 | 52.67041 | 102.12386 | 37630 ft | 453 kts | 291° |
| 2026-04-27 21:07 | 52.68089 | 102.07523 | 38315 ft | 451 kts | 291° |
| 2026-04-27 21:07 | 52.69145 | 102.02634 | 38116 ft | 449 kts | 291° |
| 2026-04-27 21:07 | 52.70182 | 101.97852 | 38267 ft | 445 kts | 291° |
| 2026-04-27 21:07 | 52.71218 | 101.93098 | 38416 ft | 441 kts | 291° |
| 2026-04-27 21:08 | 52.72254 | 101.88357 | 38058 ft | 435 kts | 292° |
| 2026-04-27 21:08 | 52.73281 | 101.83675 | 38307 ft | 435 kts | 292° |
| 2026-04-27 21:08 | 52.74277 | 101.79047 | 38392 ft | 433 kts | 291° |
| 2026-04-27 21:08 | 52.75215 | 101.74351 | 38059 ft | 431 kts | 290° |
| 2026-04-27 21:09 | 52.76128 | 101.69651 | 38164 ft | 437 kts | 290° |
| 2026-04-27 21:09 | 52.77061 | 101.64836 | 38385 ft | 439 kts | 290° |
| 2026-04-27 21:09 | 52.77986 | 101.60088 | 38108 ft | 436 kts | 290° |
| 2026-04-27 21:09 | 52.78926 | 101.55289 | 38221 ft | 442 kts | 290° |
| 2026-04-27 21:10 | 52.79855 | 101.50554 | 38426 ft | 440 kts | 290° |
| 2026-04-27 21:10 | 52.80806 | 101.45725 | 38105 ft | 436 kts | 290° |
| 2026-04-27 21:10 | 52.81746 | 101.40969 | 38195 ft | 441 kts | 290° |
| 2026-04-27 21:10 | 52.82693 | 101.36183 | 38507 ft | 438 kts | 290° |
| 2026-04-27 21:11 | 52.83633 | 101.31442 | 38142 ft | 435 kts | 289° |
| 2026-04-27 21:11 | 52.85524 | 101.21925 | 38464 ft | 438 kts | 289° |
| 2026-04-27 21:11 | 52.86469 | 101.17181 | 38189 ft | 435 kts | 289° |
| 2026-04-27 21:12 | 52.87419 | 101.12419 | 38102 ft | 438 kts | 289° |
| 2026-04-27 21:12 | 52.88375 | 101.07648 | 38472 ft | 439 kts | 289° |
| 2026-04-27 21:12 | 52.89324 | 101.02902 | 38220 ft | 436 kts | 289° |
| 2026-04-27 21:12 | 52.90276 | 100.98167 | 38091 ft | 437 kts | 289° |
| 2026-04-27 21:13 | 52.91233 | 100.93404 | 38480 ft | 438 kts | 289° |
| 2026-04-27 21:13 | 52.92188 | 100.88669 | 38292 ft | 436 kts | 289° |
| 2026-04-27 21:13 | 52.93149 | 100.83907 | 38101 ft | 435 kts | 289° |
| 2026-04-27 21:13 | 52.94116 | 100.79140 | 38410 ft | 439 kts | 289° |
| 2026-04-27 21:14 | 52.95077 | 100.74399 | 38326 ft | 437 kts | 289° |
| 2026-04-27 21:14 | 52.96038 | 100.69672 | 38137 ft | 434 kts | 289° |
| 2026-04-27 21:14 | 52.97008 | 100.64932 | 38379 ft | 440 kts | 289° |
| 2026-04-27 21:15 | 52.98966 | 100.55386 | 38122 ft | 432 kts | 289° |
| 2026-04-27 21:15 | 52.99937 | 100.50655 | 38226 ft | 440 kts | 289° |
| 2026-04-27 21:15 | 53.00894 | 100.45832 | 38313 ft | 437 kts | 288° |
| 2026-04-27 21:15 | 53.01796 | 100.41120 | 38154 ft | 430 kts | 288° |
| 2026-04-27 21:16 | 53.02699 | 100.36351 | 38125 ft | 438 kts | 288° |
| 2026-04-27 21:16 | 53.03621 | 100.31474 | 38394 ft | 441 kts | 288° |
| 2026-04-27 21:16 | 53.04524 | 100.26704 | 38177 ft | 438 kts | 288° |
| 2026-04-27 21:17 | 53.06361 | 100.17037 | 38317 ft | 439 kts | 288° |
| 2026-04-27 21:17 | 53.07272 | 100.12260 | 38166 ft | 434 kts | 288° |
| 2026-04-27 21:17 | 53.08181 | 100.07504 | 38087 ft | 432 kts | 288° |
| 2026-04-27 21:17 | 53.09098 | 100.02710 | 38188 ft | 443 kts | 288° |
| 2026-04-27 21:18 | 53.10028 | 99.97855 | 38257 ft | 441 kts | 288° |
| 2026-04-27 21:18 | 53.10955 | 99.93031 | 38111 ft | 433 kts | 288° |
| 2026-04-27 21:18 | 53.11859 | 99.88338 | 38172 ft | 428 kts | 288° |
| 2026-04-27 21:19 | 53.13676 | 99.78930 | 38183 ft | 433 kts | 288° |
| 2026-04-27 21:19 | 53.15542 | 99.69312 | 38193 ft | 436 kts | 288° |
| 2026-04-27 21:20 | 53.18321 | 99.55038 | 38173 ft | 432 kts | 288° |
| 2026-04-27 21:20 | 53.20185 | 99.45521 | 38174 ft | 433 kts | 288° |
| 2026-04-27 21:21 | 53.22049 | 99.36057 | 38191 ft | 431 kts | 288° |
| 2026-04-27 21:21 | 53.23930 | 99.26566 | 38191 ft | 431 kts | 288° |
| 2026-04-27 21:22 | 53.25808 | 99.17120 | 38187 ft | 431 kts | 287° |
| 2026-04-27 21:22 | 53.27531 | 99.07613 | 38195 ft | 430 kts | 285° |
| 2026-04-27 21:23 | 53.29193 | 98.98100 | 38185 ft | 429 kts | 285° |
| 2026-04-27 21:23 | 53.30876 | 98.88524 | 38183 ft | 429 kts | 286° |
| 2026-04-27 21:24 | 53.32555 | 98.79043 | 38163 ft | 429 kts | 286° |
| 2026-04-27 21:24 | 53.34253 | 98.69505 | 38199 ft | 429 kts | 286° |
| 2026-04-27 21:25 | 53.35960 | 98.59968 | 38182 ft | 428 kts | 286° |
| 2026-04-27 21:25 | 53.37667 | 98.50450 | 38180 ft | 428 kts | 286° |
| 2026-04-27 21:26 | 53.39386 | 98.40913 | 38195 ft | 428 kts | 286° |
| 2026-04-27 21:26 | 53.41108 | 98.31395 | 38317 ft | 436 kts | 285° |
| 2026-04-27 21:27 | 53.41987 | 98.26556 | 38971 ft | 436 kts | 285° |
| 2026-04-27 21:27 | 53.42864 | 98.21730 | 39516 ft | 437 kts | 285° |
| 2026-04-27 21:27 | 53.43758 | 98.16834 | 39973 ft | 440 kts | 285° |
| 2026-04-27 21:27 | 53.44649 | 98.11961 | 40035 ft | 440 kts | 285° |
| 2026-04-27 21:28 | 53.46439 | 98.02241 | 40028 ft | 435 kts | 285° |
| 2026-04-27 21:28 | 53.48215 | 97.92619 | 39893 ft | 429 kts | 286° |
| 2026-04-27 21:29 | 53.49989 | 97.83048 | 40062 ft | 431 kts | 285° |
| 2026-04-27 21:29 | 53.50823 | 97.78278 | 39925 ft | 427 kts | 284° |
| 2026-04-27 21:29 | 53.51630 | 97.73456 | 39903 ft | 433 kts | 284° |
| 2026-04-27 21:30 | 53.52440 | 97.68610 | 40054 ft | 437 kts | 284° |
| 2026-04-27 21:30 | 53.53263 | 97.63720 | 39990 ft | 435 kts | 285° |
| 2026-04-27 21:30 | 53.54919 | 97.54069 | 40007 ft | 427 kts | 285° |
| 2026-04-27 21:31 | 53.56569 | 97.44482 | 39984 ft | 432 kts | 285° |
| 2026-04-27 21:31 | 53.58242 | 97.34799 | 40001 ft | 433 kts | 284° |
| 2026-04-27 21:32 | 53.59832 | 97.25040 | 39987 ft | 431 kts | 283° |
| 2026-04-27 21:32 | 53.61309 | 97.15254 | 39988 ft | 433 kts | 283° |
| 2026-04-27 21:33 | 53.62796 | 97.05492 | 39991 ft | 433 kts | 283° |
| 2026-04-27 21:33 | 53.64302 | 96.95692 | 40020 ft | 435 kts | 283° |
| 2026-04-27 21:34 | 53.65826 | 96.85838 | 40013 ft | 435 kts | 283° |
| 2026-04-27 21:34 | 53.67338 | 96.76102 | 39995 ft | 434 kts | 284° |
| 2026-04-27 21:35 | 53.68877 | 96.66260 | 40015 ft | 435 kts | 284° |
| 2026-04-27 21:35 | 53.70425 | 96.56400 | 39991 ft | 434 kts | 284° |
| 2026-04-27 21:36 | 53.71970 | 96.46609 | 40015 ft | 435 kts | 284° |
| 2026-04-27 21:36 | 53.73526 | 96.36797 | 39981 ft | 435 kts | 284° |
| 2026-04-27 21:37 | 53.75098 | 96.26923 | 40013 ft | 435 kts | 283° |
| 2026-04-27 21:37 | 53.76671 | 96.17129 | 40013 ft | 434 kts | 283° |
| 2026-04-27 21:38 | 53.78252 | 96.07343 | 40021 ft | 434 kts | 284° |
| 2026-04-27 21:38 | 53.79849 | 95.97522 | 40033 ft | 434 kts | 284° |
| 2026-04-27 21:39 | 53.81291 | 95.87678 | 40031 ft | 434 kts | 282° |
| 2026-04-27 21:39 | 53.82659 | 95.77792 | 40033 ft | 433 kts | 282° |
| 2026-04-27 21:40 | 53.84043 | 95.67886 | 40035 ft | 433 kts | 282° |
| 2026-04-27 21:40 | 53.85439 | 95.57983 | 40033 ft | 434 kts | 282° |
| 2026-04-27 21:41 | 53.86838 | 95.48126 | 40026 ft | 433 kts | 282° |
| 2026-04-27 21:41 | 53.88245 | 95.38259 | 40019 ft | 433 kts | 282° |
| 2026-04-27 21:42 | 53.89663 | 95.28380 | 40031 ft | 433 kts | 282° |
| 2026-04-27 21:42 | 53.91090 | 95.18492 | 40029 ft | 433 kts | 282° |
| 2026-04-27 21:43 | 53.92516 | 95.08665 | 40027 ft | 433 kts | 281° |
| 2026-04-27 21:43 | 53.93964 | 94.98736 | 40016 ft | 433 kts | 282° |
| 2026-04-27 21:44 | 53.95409 | 94.88867 | 40017 ft | 433 kts | 282° |
| 2026-04-27 21:44 | 53.96865 | 94.79028 | 40003 ft | 434 kts | 282° |
| 2026-04-27 21:45 | 53.98343 | 94.69112 | 40016 ft | 435 kts | 282° |
| 2026-04-27 21:45 | 53.99827 | 94.59190 | 40030 ft | 434 kts | 282° |
| 2026-04-27 21:46 | 54.01156 | 94.49212 | 40019 ft | 435 kts | 281° |
| 2026-04-27 21:46 | 54.02457 | 94.39150 | 40024 ft | 435 kts | 281° |
| 2026-04-27 21:47 | 54.03776 | 94.29127 | 40030 ft | 436 kts | 280° |
| 2026-04-27 21:47 | 54.05105 | 94.19114 | 40029 ft | 437 kts | 280° |
| 2026-04-27 21:48 | 54.06458 | 94.08997 | 40049 ft | 437 kts | 281° |
| 2026-04-27 21:48 | 54.07818 | 93.98929 | 40073 ft | 437 kts | 281° |
| 2026-04-27 21:49 | 54.09189 | 93.88842 | 40079 ft | 438 kts | 281° |
| 2026-04-27 21:49 | 54.10565 | 93.78770 | 40093 ft | 437 kts | 281° |
| 2026-04-27 21:50 | 54.11973 | 93.68695 | 40084 ft | 438 kts | 282° |
| 2026-04-27 21:50 | 54.13380 | 93.58631 | 40092 ft | 438 kts | 280° |